Jackson, Wyoming
Current Conditions -  °F | °C
As of 1:52 PM on Tuesday 21 Oct 2014 (Local Time) from KJAC Reporting Station
Overcast Overcast  
Wind Chill: 37°   Ceiling: 4100
Heat Index: 45°   Visibility: 10mi
Dew Point: 37°   Wind: 16mph
Humidity: 76%   Direction: 180°S
Pressure: 30.02"   Gusts: NA
Location:  43.48°N, 110.76°W
Report Text: KJAC 211952Z 18014KT 10SM OVC041 07/03 A3002
Loading
Personal Weather Stations






























Interactive Weather Map
Tropical Storm Tracking
New forecast layout! Learn more

10-Day Weather Forecast

Advertisements
Track Severe Weather on mobile